Time;durP1;ratioP1;P1;durP2;ratioP2;P2;SDS_P1;SDS_P2;PMS_P1;PMS_P2;Temp;Humidity;BMP_temperature;BMP_pressure;BME280_temperature;BME280_humidity;BME280_pressure;Samples;Min_cycle;Max_cycle;Signal;HPM_P1;HPM_P2
2022/09/28 00:01:31;;;;;;;15.57;7.73;;;;;;;10.11;75.65;98472.31;4896934;29;20032;-86
2022/09/28 00:03:58;;;;;;;17.15;7.78;;;;;;;10.40;75.88;98496.13;4872051;29;20368;-86
2022/09/28 00:06:27;;;;;;;10.93;7.07;;;;;;;10.51;76.15;98521.91;4864998;29;20045;-87
2022/09/28 00:09:19;;;;;;;11.90;7.28;;;;;;;10.23;76.29;98490.72;4811368;29;20058;-87
2022/09/28 00:11:45;;;;;;;11.73;7.40;;;;;;;10.20;75.86;98489.47;4823760;29;20050;-87
2022/09/28 00:14:19;;;;;;;12.07;7.75;;;;;;;10.19;76.29;98508.91;4830561;29;20521;-87
2022/09/28 00:16:48;;;;;;;13.90;7.47;;;;;;;10.10;76.85;98485.19;4820325;29;20115;-88
2022/09/28 00:19:20;;;;;;;17.35;7.85;;;;;;;10.08;76.81;98476.50;4823715;29;20528;-89
2022/09/28 00:21:47;;;;;;;17.80;8.00;;;;;;;10.07;76.78;98452.28;4808981;29;20153;-88
2022/09/28 00:24:14;;;;;;;18.10;8.35;;;;;;;10.32;76.51;98477.84;4823192;29;20047;-89
2022/09/28 00:26:50;;;;;;;10.77;7.15;;;;;;;10.51;76.01;98502.78;4821289;29;20054;-88
2022/09/28 00:29:36;;;;;;;13.15;7.50;;;;;;;10.29;76.11;98468.38;4793938;29;20079;-88
2022/09/28 00:32:12;;;;;;;12.20;7.60;;;;;;;10.40;76.40;98485.19;4828673;29;20136;-88
2022/09/28 00:35:28;;;;;;;15.65;7.72;;;;;;;10.43;76.63;98490.00;4840812;29;20102;-88
2022/09/28 00:37:55;;;;;;;13.05;7.10;;;;;;;10.37;75.75;98449.53;4808383;29;20039;-88
2022/09/28 00:40:27;;;;;;;12.50;7.82;;;;;;;10.42;76.05;98466.50;4842977;29;20628;-89
2022/09/28 00:42:57;;;;;;;11.52;7.30;;;;;;;10.37;76.13;98449.53;4823789;29;20089;-89
2022/09/28 00:45:29;;;;;;;12.18;7.50;;;;;;;10.58;75.68;98464.00;4802051;29;20066;-88
2022/09/28 00:48:12;;;;;;;12.40;7.65;;;;;;;10.32;75.82;98436.88;4881096;29;20069;-86
2022/09/28 00:50:39;;;;;;;13.52;8.13;;;;;;;10.27;76.17;98421.47;4895630;29;20053;-88
2022/09/28 00:53:55;;;;;;;13.88;8.45;;;;;;;10.71;75.97;98478.53;4864454;29;20072;-89
2022/09/28 00:56:28;;;;;;;;;;;;;;;10.69;75.24;98469.84;4898273;29;20161;-87
2022/09/28 00:58:58;;;;;;;12.38;7.05;;;;;;;10.51;75.16;98447.34;4880740;29;20247;-89
2022/09/28 01:01:50;;;;;;;12.98;6.85;;;;;;;10.54;75.11;98463.06;4898861;29;20029;-87
2022/09/28 01:04:28;;;;;;;20.25;7.28;;;;;;;10.27;76.15;98431.63;4882989;29;20040;-88
2022/09/28 01:06:57;;;;;;;12.30;6.68;;;;;;;10.21;76.17;98421.97;4879309;29;20057;-89
2022/09/28 01:09:31;;;;;;;13.45;7.32;;;;;;;10.30;75.07;98418.09;4892961;29;20750;-88
2022/09/28 01:11:59;;;;;;;11.23;7.22;;;;;;;10.41;75.45;98421.22;4895199;29;20049;-88
2022/09/28 01:15:14;;;;;;;11.40;6.78;;;;;;;10.50;75.64;98445.75;4859846;29;20047;-86
2022/09/28 01:18:28;;;;;;;17.23;6.72;;;;;;;10.46;75.50;98442.88;4879676;29;20049;-87
2022/09/28 01:21:16;;;;;;;10.95;6.57;;;;;;;10.34;75.52;98426.41;4879256;29;20220;-89
2022/09/28 01:24:34;;;;;;;9.55;6.40;;;;;;;10.50;75.20;98429.34;4893379;29;20380;-88
2022/09/28 01:27:51;;;;;;;12.70;6.90;;;;;;;10.41;75.52;98415.75;4869573;29;20048;-88
2022/09/28 01:30:20;;;;;;;14.23;6.40;;;;;;;10.68;75.02;98427.25;4900317;29;20072;-89
2022/09/28 01:33:06;;;;;;;9.18;6.28;;;;;;;10.54;75.02;98420.13;4899613;29;20057;-87
2022/09/28 01:36:17;;;;;;;9.25;5.65;;;;;;;10.45;75.57;98418.59;4876443;29;20567;-87
2022/09/28 01:38:58;;;;;;;9.32;4.85;;;;;;;10.23;75.44;98378.72;4884846;29;20048;-90
2022/09/28 01:41:29;;;;;;;10.90;4.50;;;;;;;10.35;74.52;98384.28;4901723;29;20048;-88
2022/09/28 01:43:56;;;;;;;8.90;4.93;;;;;;;10.14;75.78;98361.63;4900533;29;20426;-87
2022/09/28 01:46:40;;;;;;;7.20;4.60;;;;;;;10.49;75.48;98412.13;4883341;29;20147;-88
2022/09/28 01:49:37;;;;;;;8.63;4.90;;;;;;;10.16;75.71;98373.81;4882649;29;20072;-87
2022/09/28 01:52:19;;;;;;;6.78;4.43;;;;;;;10.11;76.55;98377.53;4881851;29;20072;-87
2022/09/28 01:54:51;;;;;;;10.32;4.95;;;;;;;10.25;76.51;98395.59;4898636;29;20132;-94
2022/09/28 01:57:20;;;;;;;8.23;4.47;;;;;;;10.35;76.25;98396.00;4917586;29;20175;-88
2022/09/28 02:00:09;;;;;;;6.50;4.43;;;;;;;10.45;75.13;98391.28;4888696;29;20094;-89
2022/09/28 02:06:51;;;;;;;10.50;4.35;;;;;;;10.31;75.48;98392.38;4880262;29;20048;-86
2022/09/28 02:09:44;;;;;;;7.15;4.13;;;;;;;10.33;75.03;98370.97;4884875;29;20142;-87
2022/09/28 02:12:15;;;;;;;8.00;4.50;;;;;;;10.32;75.43;98379.50;4933336;29;20077;-88
2022/09/28 02:16:37;;;;;;;6.80;4.22;;;;;;;10.14;75.01;98331.59;4921761;29;20054;-89
2022/09/28 02:19:13;;;;;;;8.02;4.70;;;;;;;10.09;74.71;98305.28;4877535;29;20130;-87
2022/09/28 02:22:13;;;;;;;9.68;4.22;;;;;;;10.27;75.31;98357.88;4892957;29;20055;-90
2022/09/28 02:24:57;;;;;;;9.23;3.72;;;;;;;10.09;75.14;98317.00;4858411;29;20064;-88
2022/09/28 02:27:54;;;;;;;12.07;4.35;;;;;;;10.35;74.99;98348.78;4854065;29;20534;-89
2022/09/28 02:30:20;;;;;;;8.55;4.30;;;;;;;10.01;75.37;98306.97;4921212;23;20081;-90
2022/09/28 02:33:07;;;;;;;5.97;3.78;;;;;;;10.28;75.41;98338.41;4902725;29;20052;-88
2022/09/28 02:35:34;;;;;;;11.70;5.35;;;;;;;9.97;75.67;98319.69;4887997;29;20036;-90
2022/09/28 02:38:21;;;;;;;7.03;3.70;;;;;;;9.94;75.50;98301.25;4903017;29;20059;-88
2022/09/28 02:41:30;;;;;;;10.30;3.85;;;;;;;10.01;75.79;98304.22;4861114;29;20053;-89
2022/09/28 02:44:41;;;;;;;6.55;3.40;;;;;;;10.12;75.06;98302.69;4861969;29;20085;-87
2022/09/28 02:47:22;;;;;;;6.03;3.70;;;;;;;10.34;75.15;98337.06;4818169;29;20058;-88
2022/09/28 02:49:58;;;;;;;7.70;3.88;;;;;;;10.10;74.88;98285.84;4910063;29;20143;-88
2022/09/28 02:53:10;;;;;;;8.57;4.05;;;;;;;9.81;75.20;98264.09;4896533;29;20089;-87
2022/09/28 02:56:17;;;;;;;5.30;3.45;;;;;;;10.10;75.08;98323.28;4913773;29;20080;-90
2022/09/28 02:59:17;;;;;;;6.13;3.33;;;;;;;10.13;75.33;98330.78;4903868;29;20049;-88
2022/09/28 03:02:18;;;;;;;8.23;3.33;;;;;;;10.09;75.67;98322.44;4867489;29;20056;-89
2022/09/28 03:06:21;;;;;;;5.97;3.00;;;;;;;9.75;75.83;98265.41;4920330;29;20102;-87
2022/09/28 03:09:06;;;;;;;6.65;2.75;;;;;;;10.15;75.08;98316.81;4907337;29;20059;-90
2022/09/28 03:11:48;;;;;;;8.15;2.97;;;;;;;10.22;75.49;98320.59;4898732;29;20072;-89
2022/09/28 03:14:16;;;;;;;6.30;3.47;;;;;;;9.96;74.90;98282.56;4900888;29;20391;-87
2022/09/28 03:17:11;;;;;;;8.88;3.30;;;;;;;9.78;75.44;98257.38;4884621;29;20120;-90
2022/09/28 03:19:41;;;;;;;4.90;2.92;;;;;;;9.60;75.62;98234.06;4915717;23;20091;-89
2022/09/28 03:22:29;;;;;;;6.40;3.05;;;;;;;9.85;75.85;98278.66;4944516;23;20098;-89
2022/09/28 03:25:06;;;;;;;8.20;3.50;;;;;;;9.86;76.28;98272.06;4898527;29;20088;-88
2022/09/28 03:27:34;;;;;;;7.72;3.40;;;;;;;9.69;76.19;98255.84;4893269;29;20068;-87
2022/09/28 03:30:01;;;;;;;9.63;3.25;;;;;;;10.07;75.98;98302.91;4886540;29;20054;-89
2022/09/28 03:32:28;;;;;;;4.70;2.63;;;;;;;9.82;75.85;98258.28;4897520;29;20044;-88
2022/09/28 03:35:29;;;;;;;7.80;3.25;;;;;;;10.15;75.98;98293.03;4902120;29;20051;-88
2022/09/28 03:37:56;;;;;;;8.60;3.00;;;;;;;9.62;75.56;98226.34;4899068;29;20044;-88
2022/09/28 03:40:58;;;;;;;16.58;3.22;;;;;;;9.56;76.49;98233.13;4897264;23;20052;-91
2022/09/28 03:43:25;;;;;;;8.13;3.30;;;;;;;9.32;76.07;98196.41;4879443;23;20063;-90
2022/09/28 03:45:59;;;;;;;8.75;3.15;;;;;;;9.62;76.40;98234.53;4914768;23;20055;-92
2022/09/28 03:48:31;;;;;;;11.30;3.20;;;;;;;9.35;76.25;98175.88;4927646;23;20921;-90
2022/09/28 03:51:08;;;;;;;7.47;3.28;;;;;;;10.05;76.20;98290.69;4909938;29;20506;-91
2022/09/28 03:53:35;;;;;;;7.20;3.40;;;;;;;9.81;76.21;98245.00;4901472;29;20059;-89
2022/09/28 03:56:06;;;;;;;6.95;2.72;;;;;;;10.01;76.26;98268.72;4884860;29;20096;-90
2022/09/28 03:58:33;;;;;;;5.75;3.03;;;;;;;9.92;76.17;98262.53;4860162;29;20048;-91
2022/09/28 04:01:05;;;;;;;8.05;2.97;;;;;;;9.79;75.99;98234.38;4879999;29;20048;-87
2022/09/28 04:03:31;;;;;;;7.07;2.80;;;;;;;9.78;76.41;98241.00;4860044;29;20468;-89
2022/09/28 04:06:06;;;;;;;6.32;3.10;;;;;;;9.95;76.18;98244.72;4835705;29;20483;-89
2022/09/28 04:08:50;;;;;;;3.80;2.60;;;;;;;9.78;75.99;98227.34;4875791;29;20051;-91
2022/09/28 04:11:20;;;;;;;12.68;3.63;;;;;;;10.06;75.85;98260.31;4885525;29;20396;-92
2022/09/28 04:14:06;;;;;;;9.55;2.85;;;;;;;9.88;76.02;98228.88;4928974;29;20154;-89
2022/09/28 04:16:58;;;;;;;6.07;3.33;;;;;;;10.07;76.18;98255.69;4938024;29;20040;-89
2022/09/28 04:19:45;;;;;;;8.85;3.08;;;;;;;9.74;75.80;98195.59;4939161;29;20080;-88
2022/09/28 04:22:30;;;;;;;4.38;2.92;;;;;;;10.19;75.71;98257.66;4946974;29;20060;-91
2022/09/28 04:24:57;;;;;;;6.60;2.90;;;;;;;9.67;75.31;98168.03;4955989;23;20136;-91
2022/09/28 04:30:43;;;;;;;4.68;2.95;;;;;;;10.26;75.37;98252.47;4957642;29;20032;-90
2022/09/28 04:33:11;;;;;;;7.03;3.20;;;;;;;9.85;75.60;98180.41;4870057;29;20025;-89
2022/09/28 04:35:41;;;;;;;7.57;3.22;;;;;;;10.24;75.38;98238.34;4870930;29;20121;-93
2022/09/28 04:48:21;;;;;;;8.80;4.35;;;;;;;10.17;75.98;98232.63;4886947;29;20072;-94
2022/09/28 04:51:30;;;;;;;5.78;3.58;;;;;;;10.04;76.58;98243.50;4900579;29;20052;-96
2022/09/28 04:54:14;;;;;;;9.40;3.70;;;;;;;9.51;76.70;98149.56;4884741;29;20060;-93
2022/09/28 04:56:41;;;;;;;13.05;4.78;;;;;;;9.69;76.32;98176.69;4885542;29;20514;-93
2022/09/28 04:59:08;;;;;;;6.72;3.75;;;;;;;10.18;76.03;98242.41;4884567;29;20041;-93
2022/09/28 05:01:36;;;;;;;7.82;4.30;;;;;;;9.89;76.70;98198.50;4884548;29;20100;-92
2022/09/28 05:04:30;;;;;;;8.50;4.38;;;;;;;9.83;76.35;98177.19;4884372;29;20044;-96
2022/09/28 05:10:27;;;;;;;7.05;4.22;;;;;;;10.22;75.40;98194.16;4904839;29;20063;-95
2022/09/28 05:12:54;;;;;;;20.27;4.60;;;;;;;10.23;74.83;98188.38;4887144;29;20051;-92
2022/09/28 05:15:23;;;;;;;13.05;5.35;;;;;;;10.25;75.08;98193.50;4904660;29;20392;-93
2022/09/28 05:18:14;;;;;;;7.78;4.65;;;;;;;10.40;75.29;98216.63;4906041;29;20139;-96
2022/09/28 05:20:55;;;;;;;8.70;5.85;;;;;;;10.01;75.03;98154.06;4902044;29;20063;-93
2022/09/28 05:24:27;;;;;;;16.08;6.00;;;;;;;10.44;75.22;98212.13;4902888;29;20152;-92
2022/09/28 05:26:56;;;;;;;10.57;7.28;;;;;;;10.36;75.23;98200.13;4953413;23;20639;-92
2022/09/28 05:29:25;;;;;;;15.15;7.00;;;;;;;10.06;75.50;98172.16;4885804;29;20044;-92
2022/09/28 05:32:13;;;;;;;14.80;7.00;;;;;;;10.25;75.91;98196.22;4928821;23;20058;-94
2022/09/28 05:35:00;;;;;;;11.32;6.95;;;;;;;10.09;75.97;98168.75;4940551;29;20049;-94
2022/09/28 05:37:51;;;;;;;21.67;7.22;;;;;;;10.32;75.59;98207.41;4914357;29;20081;-90
2022/09/28 05:40:17;;;;;;;32.23;9.30;;;;;;;10.37;75.36;98200.97;4925682;29;20175;-90
2022/09/28 05:42:43;;;;;;;33.08;8.65;;;;;;;10.44;75.31;98204.72;4924675;29;20038;-91
2022/09/28 05:45:43;;;;;;;22.63;8.35;;;;;;;10.01;75.37;98145.88;4943592;29;20061;-94
2022/09/28 05:48:10;;;;;;;29.48;8.52;;;;;;;9.76;75.62;98108.72;4907198;29;20074;-91
2022/09/28 05:50:36;;;;;;;;;;;;;;;10.40;75.67;98190.16;4951392;29;20538;-90
2022/09/28 05:53:08;;;;;;;25.20;10.40;;;;;;;10.05;75.71;98133.13;4903769;29;19933;-93
2022/09/28 05:56:04;;;;;;;39.10;11.35;;;;;;;10.27;75.37;98145.63;4889689;29;20211;-95
2022/09/28 05:59:29;;;;;;;33.58;10.60;;;;;;;10.53;75.25;98194.50;4848918;29;20059;-90
2022/09/28 06:01:58;;;;;;;40.13;10.50;;;;;;;10.43;75.20;98148.50;4863826;29;20080;-92
2022/09/28 06:04:28;;;;;;;28.02;9.18;;;;;;;10.30;74.65;98128.56;4864416;29;20041;-94
2022/09/28 06:07:21;;;;;;;33.08;12.27;;;;;;;10.74;74.50;98177.19;4867519;29;20502;-96
2022/09/28 06:09:59;;;;;;;43.00;11.55;;;;;;;10.31;74.22;98110.22;4863995;29;20534;-92
2022/09/28 06:13:11;;;;;;;39.80;11.90;;;;;;;10.69;74.48;98180.13;4864472;29;20057;-95
2022/09/28 06:15:45;;;;;;;30.65;10.77;;;;;;;10.47;75.04;98151.34;4863695;29;20433;-96
2022/09/28 06:18:16;;;;;;;43.53;14.75;;;;;;;10.73;74.97;98187.31;4861625;29;20045;-93
2022/09/28 06:21:10;;;;;;;43.50;12.25;;;;;;;10.73;74.73;98192.78;4827363;29;20501;-92
2022/09/28 06:23:41;;;;;;;31.85;13.63;;;;;;;10.46;74.96;98134.16;4827006;29;20053;-90
2022/09/28 06:26:11;;;;;;;23.33;12.02;;;;;;;10.65;74.90;98169.09;4851121;29;20056;-93
2022/09/28 06:29:03;;;;;;;30.38;14.00;;;;;;;10.83;74.45;98194.28;4859858;29;20091;-93
2022/09/28 06:31:30;;;;;;;35.75;11.50;;;;;;;10.47;74.82;98145.88;4858905;29;20057;-90
2022/09/28 06:34:00;;;;;;;;;;;;;;;10.87;74.62;98194.38;4859846;29;20065;-93
2022/09/28 06:36:42;;;;;;;29.48;12.15;;;;;;;10.25;74.35;98106.88;4897696;29;19929;-90
2022/09/28 06:39:08;;;;;;;30.50;12.32;;;;;;;10.19;75.08;98115.63;4918174;29;20040;-91
2022/09/28 06:42:02;;;;;;;31.35;12.88;;;;;;;10.49;75.28;98154.50;4932693;29;20493;-91
2022/09/28 06:45:14;;;;;;;25.98;11.85;;;;;;;10.72;75.17;98191.19;4920530;29;20044;-93
2022/09/28 06:48:18;;;;;;;36.13;11.13;;;;;;;10.45;75.62;98154.38;4934399;29;20048;-92
2022/09/28 06:51:11;;;;;;;34.47;12.00;;;;;;;10.78;75.56;98184.34;4918825;29;20040;-95
2022/09/28 06:53:55;;;;;;;46.97;16.85;;;;;;;10.82;75.00;98160.66;4898879;29;20052;-92
2022/09/28 06:58:02;;;;;;;40.85;17.98;;;;;;;10.96;74.71;98184.94;4888519;29;20089;-96
2022/09/28 07:01:25;;;;;;;31.27;13.40;;;;;;;10.92;74.92;98181.25;4891726;29;20581;-91
2022/09/28 07:04:19;;;;;;;48.90;22.10;;;;;;;10.43;75.42;98125.81;4890508;29;20064;-94
2022/09/28 07:07:05;;;;;;;80.47;27.95;;;;;;;10.92;75.13;98169.53;4899201;29;20135;-94
2022/09/28 07:10:10;;;;;;;41.83;18.25;;;;;;;10.97;75.23;98172.06;4866237;29;20045;-94
2022/09/28 07:13:12;;;;;;;58.22;13.35;;;;;;;10.98;74.95;98173.63;4896667;29;20048;-90
2022/09/28 07:15:42;;;;;;;38.47;11.18;;;;;;;10.80;75.11;98151.22;4895782;29;20088;-91
2022/09/28 07:18:17;;;;;;;38.83;11.02;;;;;;;10.30;75.71;98100.44;4896517;29;20052;-95
2022/09/28 07:20:43;;;;;;;54.58;17.70;;;;;;;10.93;76.16;98171.16;4916357;23;20048;-93
2022/09/28 07:23:21;;;;;;;66.95;14.85;;;;;;;10.48;75.44;98115.47;4868532;29;20399;-95
2022/09/28 07:26:06;;;;;;;28.60;10.50;;;;;;;10.68;75.49;98171.13;4899260;29;20072;-92
2022/09/28 07:28:47;;;;;;;25.65;9.80;;;;;;;10.66;76.05;98170.69;4883992;29;20048;-95
2022/09/28 07:31:57;;;;;;;37.83;10.32;;;;;;;10.53;75.84;98117.19;4873525;29;20053;-93
2022/09/28 07:43:48;;;;;;;123.85;17.52;;;;;;;10.47;75.48;98111.16;4939624;29;20067;-93
2022/09/28 07:46:16;;;;;;;60.00;21.33;;;;;;;10.57;75.95;98126.28;4908979;29;20043;-91
2022/09/28 07:49:11;;;;;;;34.93;11.07;;;;;;;10.32;75.89;98079.84;4911256;29;20055;-96
2022/09/28 07:52:37;;;;;;;31.10;10.85;;;;;;;10.89;75.44;98168.28;4945036;23;20149;-92
2022/09/28 07:55:29;;;;;;;26.40;10.25;;;;;;;10.89;74.84;98146.41;4960637;28;20047;-95
2022/09/28 07:58:51;;;;;;;32.85;12.13;;;;;;;10.97;75.34;98172.84;4955756;29;20496;-96
2022/09/28 08:01:37;;;;;;;23.73;8.85;;;;;;;10.31;75.20;98077.44;4943190;29;20032;-95
2022/09/28 08:04:07;;;;;;;36.30;11.45;;;;;;;10.67;75.48;98117.63;4963520;28;20043;-95
2022/09/28 08:06:47;;;;;;;18.98;8.43;;;;;;;11.04;75.30;98169.53;4935853;28;20074;-95
2022/09/28 08:09:23;;;;;;;;;;;;;;;;;;;;;
2022/09/28 08:12:03;;;;;;;31.02;9.18;;;;;;;11.04;74.53;98132.03;4942937;29;20051;-96
2022/09/28 08:14:59;;;;;;;21.65;7.80;;;;;;;11.39;74.03;98161.59;4985501;23;20055;-92
2022/09/28 08:17:37;;;;;;;46.80;9.95;;;;;;;10.95;73.63;98106.75;4946810;29;20053;-94
2022/09/28 08:22:52;;;;;;;48.95;9.77;;;;;;;11.04;73.86;98103.91;4909445;29;20044;-94
2022/09/28 08:25:21;;;;;;;31.08;9.60;;;;;;;11.22;73.48;98113.41;4893059;29;20058;-93
2022/09/28 08:31:06;;;;;;;115.65;15.27;;;;;;;11.47;72.72;98113.34;4924640;29;20056;-93
2022/09/28 08:34:12;;;;;;;35.17;10.63;;;;;;;11.14;72.86;98064.34;4921546;29;20044;-93
2022/09/28 08:37:36;;;;;;;41.90;11.35;;;;;;;11.74;73.14;98155.53;4869454;29;20144;-95
2022/09/28 08:45:36;;;;;;;18.42;8.98;;;;;;;11.67;73.21;98152.59;4928740;29;20073;-95
2022/09/28 08:51:50;;;;;;;22.10;10.07;;;;;;;11.38;72.67;98066.97;4939120;23;20059;-94
2022/09/28 08:55:25;;;;;;;27.17;10.02;;;;;;;11.43;72.09;98061.25;4927879;29;20040;-95
2022/09/28 08:58:22;;;;;;;19.70;9.80;;;;;;;11.85;71.84;98151.16;4905987;29;20063;-96
2022/09/28 09:01:22;;;;;;;22.42;10.45;;;;;;;11.34;72.01;98068.81;4924886;29;20048;-93
2022/09/28 09:03:54;;;;;;;37.38;10.20;;;;;;;11.50;72.18;98112.66;4888862;29;20055;-91
2022/09/28 09:07:29;;;;;;;55.65;12.38;;;;;;;11.43;72.90;98126.13;4929095;29;20047;-95
2022/09/28 09:10:59;;;;;;;55.03;12.00;;;;;;;11.71;72.46;98156.22;4908346;29;20052;-95
2022/09/28 09:13:49;;;;;;;44.38;11.88;;;;;;;11.75;72.58;98157.94;4925269;29;20139;-91
2022/09/28 09:16:56;;;;;;;24.95;10.93;;;;;;;11.80;72.37;98162.38;4938467;29;20122;-92
2022/09/28 09:20:24;;;;;;;33.63;11.13;;;;;;;11.94;71.96;98153.75;4920337;29;20521;-94
2022/09/28 09:23:37;;;;;;;29.65;11.82;;;;;;;12.08;71.25;98153.34;4933682;29;20059;-92
2022/09/28 09:26:17;;;;;;;63.45;14.98;;;;;;;12.11;71.76;98158.13;4921167;28;20044;-90
2022/09/28 09:32:10;;;;;;;19.63;10.88;;;;;;;11.95;71.42;98163.56;4921539;29;20040;-90
2022/09/28 09:39:37;;;;;;;23.30;12.73;;;;;;;12.14;70.83;98166.44;4901560;29;20071;-91
2022/09/28 09:43:25;;;;;;;28.00;13.50;;;;;;;12.19;72.59;98173.63;4865478;29;20562;-91
2022/09/28 09:46:37;;;;;;;41.53;14.75;;;;;;;11.93;71.55;98091.94;4869486;29;20341;-89
2022/09/28 09:50:28;;;;;;;25.20;14.05;;;;;;;12.46;71.38;98167.25;4917042;29;20048;-94
2022/09/28 09:53:34;;;;;;;39.72;14.43;;;;;;;12.59;71.10;98162.50;4916572;29;20513;-90
2022/09/28 09:56:45;;;;;;;28.98;13.70;;;;;;;12.23;70.59;98116.97;4905201;29;20048;-90
2022/09/28 09:59:46;;;;;;;42.60;14.40;;;;;;;12.20;70.73;98114.91;4832206;29;20605;-91
2022/09/28 10:02:49;;;;;;;36.00;15.35;;;;;;;12.05;71.10;98080.88;4814818;29;20470;-93
2022/09/28 10:05:33;;;;;;;43.15;15.18;;;;;;;12.37;70.94;98122.78;4793448;29;20560;-93
2022/09/28 10:08:24;;;;;;;36.35;15.35;;;;;;;12.38;70.20;98132.63;4813860;29;20116;-93
2022/09/28 10:11:01;;;;;;;29.63;17.55;;;;;;;12.06;70.69;98084.44;4852145;29;20102;-91
2022/09/28 10:13:30;;;;;;;37.22;19.27;;;;;;;12.26;70.83;98120.94;4905128;29;20047;-92
2022/09/28 10:16:27;;;;;;;53.58;29.48;;;;;;;12.23;70.45;98095.03;4912568;29;20421;-91
2022/09/28 10:18:59;;;;;;;43.78;26.80;;;;;;;12.56;70.64;98135.78;4893316;29;20048;-90
2022/09/28 10:22:03;;;;;;;40.47;17.38;;;;;;;12.27;70.35;98109.63;4887630;29;20044;-91
2022/09/28 10:25:01;;;;;;;26.85;17.67;;;;;;;12.73;70.28;98162.03;4882599;29;20559;-92
2022/09/28 10:30:25;;;;;;;36.58;19.98;;;;;;;12.59;70.50;98120.56;4898418;29;20063;-93
2022/09/28 10:33:32;;;;;;;44.08;21.45;;;;;;;12.53;70.29;98114.56;4883786;29;20051;-92
2022/09/28 10:36:41;;;;;;;34.97;19.33;;;;;;;12.61;70.92;98127.28;4864315;29;20243;-92
2022/09/28 10:39:59;;;;;;;36.63;18.50;;;;;;;12.88;69.16;98160.41;4860648;29;20041;-93
2022/09/28 10:43:17;;;;;;;43.00;18.80;;;;;;;12.91;69.04;98162.44;4872695;29;20102;-93
2022/09/28 10:45:46;;;;;;;40.23;18.00;;;;;;;12.90;70.03;98139.72;4860368;29;20554;-92
2022/09/28 10:48:59;;;;;;;30.38;16.33;;;;;;;12.74;68.62;98106.03;4845334;29;20054;-91
2022/09/28 10:51:46;;;;;;;54.97;28.88;;;;;;;12.96;68.92;98162.19;4843595;29;20109;-91
2022/09/28 10:55:38;;;;;;;67.50;33.88;;;;;;;12.90;69.46;98158.91;4881703;23;20512;-91
2022/09/28 10:58:40;;;;;;;58.17;28.58;;;;;;;13.15;69.89;98147.72;4925332;29;20047;-91
2022/09/28 11:01:33;;;;;;;41.50;16.33;;;;;;;12.67;68.07;98081.19;4957591;28;20137;-92
2022/09/28 11:04:21;;;;;;;35.15;16.05;;;;;;;12.92;68.39;98120.97;4959788;28;20039;-89
2022/09/28 11:06:47;;;;;;;34.47;20.77;;;;;;;12.60;68.45;98076.34;4925510;29;20047;-89
2022/09/28 11:10:04;;;;;;;34.65;15.90;;;;;;;12.67;69.31;98111.34;4957171;29;20049;-90
2022/09/28 11:12:44;;;;;;;23.85;12.00;;;;;;;13.05;68.47;98162.78;4926778;28;20142;-89
2022/09/28 11:15:28;;;;;;;25.77;11.68;;;;;;;12.70;68.77;98121.63;4958283;28;20043;-91
2022/09/28 11:18:31;;;;;;;20.38;11.40;;;;;;;12.60;69.50;98124.91;4944049;29;20043;-90
2022/09/28 11:21:13;;;;;;;20.73;11.35;;;;;;;12.35;69.94;98116.06;4945727;29;20119;-90
2022/09/28 11:24:15;;;;;;;21.65;12.13;;;;;;;12.58;70.34;98173.78;4946841;29;20055;-91
2022/09/28 11:27:52;;;;;;;21.55;12.35;;;;;;;12.53;70.52;98176.81;4934752;29;20130;-90
2022/09/28 11:30:54;;;;;;;21.40;12.15;;;;;;;12.28;71.09;98137.81;4969099;28;20048;-93
2022/09/28 11:34:21;;;;;;;29.98;11.57;;;;;;;12.10;70.83;98129.16;4963273;28;20070;-94
2022/09/28 11:37:33;;;;;;;23.13;11.88;;;;;;;12.45;71.28;98179.38;4960943;28;20055;-90
2022/09/28 11:40:28;;;;;;;24.67;12.13;;;;;;;12.39;71.37;98175.31;4936289;29;20038;-89
2022/09/28 11:47:30;;;;;;;24.30;14.05;;;;;;;12.33;71.91;98182.19;4960803;28;20047;-89
2022/09/28 11:50:18;;;;;;;24.15;13.23;;;;;;;11.93;71.73;98136.53;4927458;29;20043;-89
2022/09/28 11:53:35;;;;;;;25.83;12.55;;;;;;;12.27;72.02;98180.84;4915593;29;20056;-90
2022/09/28 11:56:43;;;;;;;35.75;13.82;;;;;;;12.22;71.97;98192.88;4913426;29;20063;-90
2022/09/28 12:00:09;;;;;;;;;;;;;;;12.28;71.73;98187.13;4912745;29;20056;-91
2022/09/28 12:07:17;;;;;;;26.35;13.32;;;;;;;12.49;70.77;98165.75;4909010;29;20408;-91
2022/09/28 12:11:04;;;;;;;30.25;13.38;;;;;;;12.64;70.69;98186.88;4895342;29;20052;-91
2022/09/28 12:14:26;;;;;;;163.70;26.45;;;;;;;12.51;70.06;98135.25;4889149;29;20128;-91
2022/09/28 12:17:41;;;;;;;270.15;39.38;;;;;;;12.88;70.15;98174.13;4912899;29;20093;-91
2022/09/28 12:20:43;;;;;;;83.50;21.40;;;;;;;12.85;69.82;98164.69;4891501;29;20057;-91
2022/09/28 12:23:32;;;;;;;27.85;12.20;;;;;;;12.92;68.82;98188.72;4888705;29;20057;-89
2022/09/28 12:26:28;;;;;;;28.75;17.23;;;;;;;12.57;69.16;98142.06;4881678;29;20189;-92
2022/09/28 12:29:01;;;;;;;28.92;11.80;;;;;;;12.69;69.24;98174.88;4872243;29;20078;-92
2022/09/28 12:31:59;;;;;;;24.08;10.75;;;;;;;12.66;69.75;98198.28;4869341;29;20562;-89
2022/09/28 12:34:35;;;;;;;22.88;9.93;;;;;;;12.60;70.15;98190.69;4844805;29;20092;-90
2022/09/28 12:37:34;;;;;;;20.05;9.93;;;;;;;12.57;69.79;98194.13;4864436;29;20049;-96
2022/09/28 12:43:56;;;;;;;23.88;10.75;;;;;;;12.52;69.45;98197.94;4867644;29;21014;-90
2022/09/28 12:47:04;;;;;;;24.38;10.98;;;;;;;12.57;69.52;98194.94;4853667;29;20067;-91
2022/09/28 12:49:52;;;;;;;26.30;10.18;;;;;;;12.55;69.78;98196.44;4885771;29;20127;-91
2022/09/28 12:52:54;;;;;;;15.88;9.60;;;;;;;12.49;70.04;98193.19;4854339;29;20052;-90
2022/09/28 12:55:50;;;;;;;23.20;10.65;;;;;;;12.28;69.52;98168.75;4850510;29;20053;-90
2022/09/28 12:58:39;;;;;;;27.58;10.43;;;;;;;12.61;69.12;98195.00;4942250;28;20032;-94
2022/09/28 13:01:34;;;;;;;23.27;9.68;;;;;;;12.46;69.32;98177.44;4916990;29;20777;-89
2022/09/28 13:04:29;;;;;;;24.08;9.60;;;;;;;12.59;68.89;98186.38;4923107;29;20060;-89
2022/09/28 13:07:23;;;;;;;24.88;9.60;;;;;;;12.48;69.49;98185.28;4955647;28;20049;-93
2022/09/28 13:10:47;;;;;;;31.40;10.93;;;;;;;12.60;69.70;98193.44;4930849;28;20541;-88
2022/09/28 13:14:07;;;;;;;18.45;10.27;;;;;;;12.61;68.74;98181.31;4899580;29;20686;-90
2022/09/28 13:16:53;;;;;;;22.60;9.88;;;;;;;12.78;69.27;98196.59;4878247;29;20060;-94
2022/09/28 13:23:16;;;;;;;22.00;10.05;;;;;;;12.74;68.22;98196.53;4883640;29;20068;-87
2022/09/28 13:26:22;;;;;;;20.65;9.77;;;;;;;12.75;68.49;98191.81;4880346;29;20115;-87
2022/09/28 13:28:53;;;;;;;20.42;10.13;;;;;;;12.51;69.10;98179.91;4893419;29;20052;-91
2022/09/28 13:32:03;;;;;;;25.58;9.43;;;;;;;12.61;69.48;98184.06;4875791;29;20049;-93
2022/09/28 13:34:35;;;;;;;21.17;9.02;;;;;;;12.02;68.60;98098.03;4887098;29;20083;-95
2022/09/28 13:37:20;;;;;;;23.48;8.38;;;;;;;12.48;68.54;98182.53;4890111;29;20055;-90
2022/09/28 13:39:57;;;;;;;18.77;8.60;;;;;;;12.33;68.99;98171.22;4850159;29;20057;-90
2022/09/28 13:42:58;;;;;;;19.00;7.60;;;;;;;12.36;68.95;98194.41;4908210;29;20052;-94
2022/09/28 13:49:22;;;;;;;20.42;8.40;;;;;;;12.15;69.10;98159.00;4913238;29;20044;-94
2022/09/28 13:52:56;;;;;;;14.88;7.90;;;;;;;12.40;69.07;98189.81;4834069;29;20068;-94
2022/09/28 14:00:00;;;;;;;27.10;8.40;;;;;;;12.38;68.50;98192.91;4882820;29;20533;-92
2022/09/28 14:03:12;;;;;;;16.25;8.65;;;;;;;12.31;68.76;98195.44;4907941;29;20068;-93
2022/09/28 14:06:02;;;;;;;29.33;8.60;;;;;;;12.34;69.13;98194.75;4915121;29;20040;-85
2022/09/28 14:08:33;;;;;;;13.93;7.70;;;;;;;12.31;68.86;98198.19;4886437;29;20081;-86
2022/09/28 14:11:36;;;;;;;21.25;8.77;;;;;;;12.38;68.96;98203.88;4918019;29;20532;-85
2022/09/28 14:14:12;;;;;;;23.35;8.80;;;;;;;12.19;68.90;98168.13;4907305;29;20107;-87
2022/09/28 14:16:41;;;;;;;13.40;7.93;;;;;;;12.38;68.96;98203.88;4898902;29;20048;-90
2022/09/28 14:19:34;;;;;;;32.08;8.05;;;;;;;12.38;69.23;98209.34;4916953;29;20493;-92
2022/09/28 14:22:41;;;;;;;19.75;8.00;;;;;;;12.38;68.40;98217.56;4938260;29;20086;-93
2022/09/28 14:25:34;;;;;;;19.23;7.90;;;;;;;12.33;69.49;98220.56;4930147;29;20063;-86
2022/09/28 14:28:16;;;;;;;25.33;9.10;;;;;;;12.18;68.76;98202.94;4908613;29;20051;-94
2022/09/28 14:30:42;;;;;;;20.55;8.60;;;;;;;12.37;68.60;98213.22;4906885;29;20103;-90